createdAt,value
2022-08-22T00:00:44.012Z,1.45
2022-08-22T00:03:15.576Z,3.05
2022-08-22T00:03:56.295Z,2.05
2022-08-22T00:07:07.550Z,1.48
2022-08-22T00:10:22.812Z,1.70
2022-08-22T00:13:43.181Z,0.73
2022-08-22T00:16:54.289Z,1.48
2022-08-22T00:20:06.418Z,2.17
2022-08-22T00:23:28.428Z,1.67
2022-08-22T00:26:45.107Z,0.55
2022-08-22T00:30:15.826Z,1.92
2022-08-22T00:33:43.910Z,1.48
2022-08-22T00:37:10.818Z,1.27
2022-08-22T00:40:33.083Z,1.20
2022-08-22T00:43:51.626Z,1.95
2022-08-22T00:47:43.814Z,1.23
2022-08-22T00:51:07.990Z,1.00
2022-08-22T00:54:40.635Z,1.45
2022-08-22T00:57:58.510Z,1.80
2022-08-22T01:01:06.879Z,0.43
2022-08-22T01:04:09.235Z,1.15
2022-08-22T01:07:30.548Z,0.90
2022-08-22T01:11:01.387Z,1.42
2022-08-22T01:14:14.448Z,1.42
2022-08-22T01:17:36.807Z,1.38
2022-08-22T01:21:12.138Z,1.92
2022-08-22T01:25:22.621Z,1.65
2022-08-22T01:28:30.893Z,1.25
2022-08-22T01:31:48.501Z,0.77
2022-08-22T01:34:50.176Z,1.73
2022-08-22T01:38:04.184Z,2.63
2022-08-22T01:41:17.191Z,2.00
2022-08-22T01:44:47.280Z,2.08
2022-08-22T01:48:03.708Z,1.67
2022-08-22T01:51:33.374Z,1.45
2022-08-22T01:54:46.001Z,1.27
2022-08-22T01:57:58.961Z,1.55
2022-08-22T02:01:14.790Z,1.63
2022-08-22T02:04:37.717Z,2.00
2022-08-22T02:07:46.172Z,1.75
2022-08-22T02:11:06.418Z,3.00
2022-08-22T02:14:32.806Z,1.48
2022-08-22T02:17:54.533Z,1.08
2022-08-22T02:21:17.324Z,1.42
2022-08-22T02:24:38.407Z,1.75
2022-08-22T02:27:49.813Z,0.73
2022-08-22T02:31:18.939Z,0.85
2022-08-22T02:35:07.912Z,0.75
2022-08-22T02:38:56.057Z,0.93
2022-08-22T02:42:03.744Z,0.82
2022-08-22T02:45:52.627Z,0.77
2022-08-22T02:48:54.335Z,1.20
2022-08-22T02:52:20.459Z,1.27
2022-08-22T02:55:42.435Z,0.82
2022-08-22T02:59:17.044Z,0.68
2022-08-22T03:03:00.529Z,0.40
2022-08-22T03:06:06.814Z,0.80
2022-08-22T03:12:39.255Z,0.88
2022-08-22T03:15:59.473Z,0.38
2022-08-22T03:19:18.407Z,1.20
2022-08-22T03:22:28.353Z,1.48
2022-08-22T03:25:33.429Z,1.15
2022-08-22T03:29:03.039Z,0.65
2022-08-22T03:32:13.990Z,1.27
2022-08-22T03:35:42.275Z,0.30
2022-08-22T03:39:15.311Z,1.38
2022-08-22T03:42:29.095Z,0.28
2022-08-22T03:46:08.320Z,0.68
2022-08-22T03:49:27.828Z,1.00
2022-08-22T03:52:29.475Z,0.75
2022-08-22T03:56:02.257Z,0.70
2022-08-22T03:59:22.233Z,0.60
2022-08-22T04:02:58.623Z,0.35
2022-08-22T04:06:31.184Z,1.00
2022-08-22T04:09:57.472Z,1.45
2022-08-22T04:13:34.665Z,0.68
2022-08-22T04:17:21.071Z,0.75
2022-08-22T04:20:47.811Z,1.10
2022-08-22T04:24:13.781Z,0.43
2022-08-22T04:27:21.536Z,1.20
2022-08-22T04:30:27.313Z,1.20
2022-08-22T04:33:33.362Z,0.65
2022-08-22T04:37:00.168Z,0.98
2022-08-22T04:40:14.099Z,1.15
2022-08-22T04:43:36.295Z,1.13
2022-08-22T04:46:45.921Z,0.40
2022-08-22T04:49:54.915Z,1.25
2022-08-22T04:53:27.243Z,0.30
2022-08-22T04:56:53.830Z,0.90
2022-08-22T05:00:06.034Z,0.80
2022-08-22T05:03:14.441Z,1.10
2022-08-22T05:06:19.252Z,0.40
2022-08-22T05:09:28.497Z,1.70
2022-08-22T05:12:41.544Z,1.27
2022-08-22T05:15:48.872Z,1.30
2022-08-22T05:18:59.445Z,0.82
2022-08-22T05:22:03.455Z,0.85
2022-08-22T05:25:18.880Z,1.30
2022-08-22T05:28:31.466Z,0.57
2022-08-22T05:34:44.995Z,0.50
2022-08-22T05:37:51.608Z,0.57
2022-08-22T05:41:19.246Z,0.80
2022-08-22T05:44:25.461Z,0.70
2022-08-22T05:48:06.047Z,0.30
2022-08-22T05:51:33.259Z,0.90
2022-08-22T05:57:46.510Z,0.20
2022-08-22T06:00:57.608Z,0.20
2022-08-22T06:03:59.580Z,0.70
2022-08-22T06:07:08.809Z,0.70
2022-08-22T06:10:26.809Z,0.50
2022-08-22T06:13:41.808Z,0.60
2022-08-22T06:16:54.594Z,0.10
2022-08-22T06:19:56.654Z,0.40
2022-08-22T06:23:01.909Z,0.40
2022-08-22T06:26:05.563Z,0.20
2022-08-22T06:29:49.369Z,0.25
2022-08-22T06:32:58.780Z,0.50
2022-08-22T06:36:25.979Z,0.38
2022-08-22T06:39:34.328Z,0.20
2022-08-22T06:42:42.700Z,0.50
2022-08-22T06:45:44.662Z,0.30
2022-08-22T06:48:47.888Z,0.28
2022-08-22T06:51:51.161Z,0.70
2022-08-22T06:55:09.189Z,0.50
2022-08-22T06:58:21.064Z,0.50
2022-08-22T07:01:27.675Z,0.40
2022-08-22T07:04:30.469Z,0.50
2022-08-22T07:07:32.334Z,0.10
2022-08-22T07:10:34.551Z,0.60
2022-08-22T07:13:39.230Z,0.70
2022-08-22T07:16:58.048Z,0.43
2022-08-22T07:20:15.698Z,0.65
2022-08-22T07:23:32.626Z,0.70
2022-08-22T07:27:08.440Z,1.00
2022-08-22T07:30:14.572Z,0.90
2022-08-22T07:33:47.182Z,0.70
2022-08-22T07:37:13.548Z,0.45
2022-08-22T07:40:35.841Z,0.60
2022-08-22T07:43:40.507Z,0.30
2022-08-22T07:46:57.115Z,1.08
2022-08-22T07:50:07.202Z,1.10
2022-08-22T07:53:47.529Z,0.50
2022-08-22T07:57:17.994Z,0.60
2022-08-22T08:00:21.814Z,0.65
2022-08-22T08:03:27.792Z,0.50
2022-08-22T08:06:32.000Z,0.82
2022-08-22T08:09:42.808Z,0.70
2022-08-22T08:12:57.942Z,0.40
2022-08-22T08:16:09.072Z,0.60
2022-08-22T08:19:12.637Z,0.82
2022-08-22T08:22:21.506Z,0.63
2022-08-22T08:25:27.872Z,0.75
2022-08-22T08:31:44.933Z,0.73
2022-08-22T08:34:47.052Z,0.90
2022-08-22T08:38:15.780Z,1.15
2022-08-22T08:41:51.430Z,0.80
2022-08-22T08:45:29.005Z,0.63
2022-08-22T08:49:09.663Z,1.02
2022-08-22T08:52:36.485Z,0.50
2022-08-22T08:55:57.216Z,0.82
2022-08-22T08:59:30.081Z,0.47
2022-08-22T09:03:07.169Z,0.60
2022-08-22T09:07:01.278Z,0.90
2022-08-22T09:10:29.542Z,0.50
2022-08-22T09:14:03.843Z,0.80
2022-08-22T09:17:24.952Z,0.70
2022-08-22T09:20:35.594Z,0.60
2022-08-22T09:23:56.990Z,0.47
2022-08-22T09:27:02.205Z,0.82
2022-08-22T09:30:12.583Z,0.70
2022-08-22T09:33:19.752Z,0.25
2022-08-22T09:36:32.635Z,0.82
2022-08-22T09:39:49.443Z,0.60
2022-08-22T09:43:19.814Z,0.90
2022-08-22T09:46:32.073Z,0.73
2022-08-22T09:49:55.663Z,0.63
2022-08-22T09:53:39.951Z,0.52
2022-08-22T09:56:50.496Z,0.40
2022-08-22T10:00:09.688Z,0.17
2022-08-22T10:03:23.003Z,0.45
2022-08-22T10:06:30.930Z,0.38
2022-08-22T10:10:04.150Z,0.50
2022-08-22T10:13:11.877Z,0.30
2022-08-22T10:16:28.792Z,0.38
2022-08-22T10:19:34.839Z,0.30
2022-08-22T10:22:56.406Z,0.35
2022-08-22T10:26:29.443Z,0.40
2022-08-22T10:29:51.242Z,0.40
2022-08-22T10:33:29.961Z,0.32
2022-08-22T10:36:47.162Z,0.50
2022-08-22T10:43:19.712Z,0.22
2022-08-22T10:46:42.198Z,0.43
2022-08-22T10:50:04.026Z,0.38
2022-08-22T10:53:35.039Z,0.50
2022-08-22T10:57:12.379Z,0.40
2022-08-22T11:00:31.186Z,0.40
2022-08-22T11:03:49.935Z,0.38
2022-08-22T11:07:19.195Z,0.80
2022-08-22T11:10:41.065Z,0.30
2022-08-22T11:13:58.339Z,0.30
2022-08-22T11:17:28.053Z,0.28
2022-08-22T11:20:56.017Z,0.40
2022-08-22T11:24:35.616Z,0.30
2022-08-22T11:28:15.618Z,0.32
2022-08-22T11:31:19.885Z,0.10
2022-08-22T11:34:50.090Z,0.60
2022-08-22T11:38:01.270Z,0.22
2022-08-22T11:41:22.362Z,0.40
2022-08-22T11:44:50.893Z,0.40
2022-08-22T11:48:30.035Z,0.40
2022-08-22T11:52:01.301Z,0.40
2022-08-22T11:55:21.876Z,0.38
2022-08-22T11:58:52.516Z,0.40
2022-08-22T12:02:04.933Z,0.55
2022-08-22T12:05:26.311Z,0.50
2022-08-22T12:08:34.567Z,0.52
2022-08-22T12:11:54.245Z,0.32
2022-08-22T12:15:04.517Z,0.20
2022-08-22T12:18:52.708Z,0.25
2022-08-22T12:22:28.941Z,0.30
2022-08-22T12:25:55.031Z,0.20
2022-08-22T12:29:15.186Z,0.20
2022-08-22T12:32:28.607Z,0.20
2022-08-22T12:36:18.362Z,0.10
2022-08-22T12:39:51.164Z,0.10
2022-08-22T12:43:08.021Z,0.20
2022-08-22T12:46:31.836Z,0.10
2022-08-22T12:49:52.619Z,0.10
2022-08-22T12:53:18.228Z,0.10
2022-08-22T12:56:47.231Z,0.10
2022-08-22T12:59:54.940Z,0.10
2022-08-22T13:03:23.386Z,0.20
2022-08-22T13:06:37.950Z,0.10
2022-08-22T13:09:46.495Z,0.22
2022-08-22T13:12:58.315Z,0.15
2022-08-22T13:16:05.120Z,0.20
2022-08-22T13:19:16.379Z,0.10
2022-08-22T13:22:23.766Z,0.20
2022-08-22T13:25:30.566Z,0.10
2022-08-22T13:28:40.199Z,0.17
2022-08-22T13:31:43.811Z,0.45
2022-08-22T13:34:51.263Z,0.40
2022-08-22T13:38:03.284Z,0.22
2022-08-22T13:41:07.516Z,0.20
2022-08-22T13:44:09.979Z,0.00
2022-08-22T13:47:19.183Z,0.20
2022-08-22T13:50:25.893Z,0.40
2022-08-22T13:56:53.020Z,0.50
2022-08-22T14:00:08.071Z,0.30
2022-08-22T14:03:18.481Z,0.30
2022-08-22T14:06:35.447Z,0.13
2022-08-22T14:09:48.199Z,0.20
2022-08-22T14:12:57.655Z,0.47
2022-08-22T14:16:02.927Z,0.40
2022-08-22T14:19:58.871Z,0.30
2022-08-22T14:23:07.562Z,0.20
2022-08-22T14:26:09.662Z,0.20
2022-08-22T14:29:18.654Z,0.30
2022-08-22T14:32:27.619Z,0.40
2022-08-22T14:35:40.943Z,0.20
2022-08-22T14:39:12.018Z,0.32
2022-08-22T14:42:33.261Z,0.57
2022-08-22T14:45:42.924Z,0.50
2022-08-22T14:49:06.941Z,0.50
2022-08-22T14:52:25.527Z,0.40
2022-08-22T14:55:31.654Z,0.30
2022-08-22T14:58:37.644Z,0.40
2022-08-22T15:02:02.162Z,0.40
2022-08-22T15:05:22.680Z,0.55
2022-08-22T15:08:46.457Z,0.40
2022-08-22T15:11:49.379Z,0.60
2022-08-22T15:14:55.277Z,0.30
2022-08-22T15:17:57.390Z,0.30
2022-08-22T15:21:10.031Z,0.30
2022-08-22T15:24:14.775Z,0.45
2022-08-22T15:27:20.798Z,0.10
2022-08-22T15:30:44.449Z,0.38
2022-08-22T15:33:47.787Z,0.40
2022-08-22T15:37:09.838Z,0.40
2022-08-22T15:40:40.326Z,0.30
2022-08-22T15:43:49.262Z,0.28
2022-08-22T15:47:24.136Z,0.30
2022-08-22T15:50:33.099Z,0.30
2022-08-22T15:53:44.484Z,0.30
2022-08-22T15:56:52.086Z,0.00
2022-08-22T16:00:24.014Z,0.40
2022-08-22T16:03:34.206Z,0.40
2022-08-22T16:06:50.625Z,0.30
2022-08-22T16:09:54.821Z,0.28
2022-08-22T16:13:33.004Z,0.43
2022-08-22T16:17:03.455Z,0.20
2022-08-22T16:20:09.117Z,0.30
2022-08-22T16:23:11.904Z,0.40
2022-08-22T16:26:24.022Z,0.28
2022-08-22T16:29:41.722Z,0.20
2022-08-22T16:32:52.837Z,0.22
2022-08-22T16:36:19.154Z,0.30
2022-08-22T16:39:23.847Z,0.50
2022-08-22T16:42:36.893Z,0.32
2022-08-22T16:45:45.658Z,0.20
2022-08-22T16:48:47.524Z,0.20
2022-08-22T16:52:24.788Z,0.40
2022-08-22T16:55:29.447Z,0.30
2022-08-22T16:58:56.996Z,0.10
2022-08-22T17:02:18.146Z,0.20
2022-08-22T17:05:32.439Z,0.10
2022-08-22T17:09:00.387Z,0.20
2022-08-22T17:12:34.115Z,0.20
2022-08-22T17:15:47.622Z,0.20
2022-08-22T17:19:05.094Z,0.30
2022-08-22T17:22:09.934Z,0.20
2022-08-22T17:25:23.185Z,0.40
2022-08-22T17:28:54.167Z,0.10
2022-08-22T17:32:20.901Z,0.30
2022-08-22T17:35:58.403Z,0.25
2022-08-22T17:39:53.025Z,0.15
2022-08-22T17:43:15.478Z,0.30
2022-08-22T17:46:35.626Z,0.73
2022-08-22T17:49:46.739Z,0.20
2022-08-22T17:52:54.418Z,0.20
2022-08-22T17:56:24.337Z,0.13
2022-08-22T17:59:34.900Z,0.00
2022-08-22T18:02:51.507Z,0.08
2022-08-22T18:09:19.149Z,0.10
2022-08-22T18:12:34.307Z,0.10
2022-08-22T18:15:43.347Z,0.30
2022-08-22T18:18:54.648Z,0.13
2022-08-22T18:22:04.278Z,0.10
2022-08-22T18:25:54.475Z,0.73
2022-08-22T18:29:23.509Z,0.20
2022-08-22T18:32:48.719Z,0.20
2022-08-22T18:36:01.108Z,0.08
2022-08-22T18:39:13.819Z,0.30
2022-08-22T18:42:42.187Z,0.10
2022-08-22T18:45:47.071Z,0.13
2022-08-22T18:49:13.687Z,0.10
2022-08-22T18:52:16.059Z,0.52
2022-08-22T18:55:39.567Z,0.13
2022-08-22T18:59:05.593Z,0.30
2022-08-22T19:02:34.531Z,0.40
2022-08-22T19:05:46.303Z,0.38
2022-08-22T19:09:08.815Z,0.30
2022-08-22T19:12:49.933Z,0.13
2022-08-22T19:16:06.775Z,0.40
2022-08-22T19:19:19.425Z,0.28
2022-08-22T19:22:34.507Z,0.10
2022-08-22T19:26:14.466Z,0.30
2022-08-22T19:29:16.193Z,0.20
2022-08-22T19:32:45.407Z,0.05
2022-08-22T19:35:50.240Z,0.32
2022-08-22T19:39:09.167Z,0.30
2022-08-22T19:42:19.979Z,0.63
2022-08-22T19:45:28.728Z,0.35
2022-08-22T19:48:52.683Z,0.17
2022-08-22T19:52:24.055Z,0.28
2022-08-22T19:55:33.162Z,0.20
2022-08-22T19:59:13.736Z,0.20
2022-08-22T20:02:26.946Z,0.40
2022-08-22T20:05:33.969Z,0.20
2022-08-22T20:08:49.390Z,0.38
2022-08-22T20:12:42.168Z,0.22
2022-08-22T20:16:18.136Z,0.20
2022-08-22T20:19:21.369Z,0.30
2022-08-22T20:22:25.827Z,0.17
2022-08-22T20:25:51.053Z,0.40
2022-08-22T20:28:54.218Z,0.20
2022-08-22T20:31:58.915Z,0.30
2022-08-22T20:35:03.148Z,0.20
2022-08-22T20:38:08.766Z,0.00
2022-08-22T20:41:15.213Z,0.15
2022-08-22T20:44:28.705Z,0.20
2022-08-22T20:47:39.614Z,0.20
2022-08-22T20:50:43.931Z,0.08
2022-08-22T20:53:54.618Z,0.45
2022-08-22T20:57:02.970Z,0.20
2022-08-22T21:00:12.545Z,0.20
2022-08-22T21:03:29.297Z,0.30
2022-08-22T21:06:34.982Z,0.00
2022-08-22T21:09:55.790Z,0.20
2022-08-22T21:13:04.959Z,0.20
2022-08-22T21:16:18.642Z,0.20
2022-08-22T21:19:26.407Z,0.30
2022-08-22T21:22:33.339Z,0.17
2022-08-22T21:25:50.745Z,0.30
2022-08-22T21:29:00.865Z,0.20
2022-08-22T21:32:14.138Z,0.35
2022-08-22T21:35:26.643Z,0.20
2022-08-22T21:38:28.533Z,0.20
2022-08-22T21:41:42.917Z,0.32
2022-08-22T21:44:56.372Z,0.10
2022-08-22T21:47:59.217Z,0.20
2022-08-22T21:51:24.431Z,0.20
2022-08-22T21:54:26.126Z,0.43
2022-08-22T21:57:35.738Z,0.20
2022-08-22T22:00:49.910Z,0.50
2022-08-22T22:03:51.794Z,0.20
2022-08-22T22:06:53.601Z,0.30
2022-08-22T22:09:56.467Z,0.00
2022-08-22T22:13:02.518Z,0.32
2022-08-22T22:16:06.850Z,0.40
2022-08-22T22:19:08.910Z,0.30
2022-08-22T22:22:12.490Z,0.28
2022-08-22T22:25:39.624Z,0.10
2022-08-22T22:28:47.332Z,0.10
2022-08-22T22:31:49.078Z,0.30
2022-08-22T22:34:50.846Z,0.60
2022-08-22T22:37:52.648Z,0.30
2022-08-22T22:40:54.400Z,0.20
2022-08-22T22:43:56.134Z,0.35
2022-08-22T22:46:59.756Z,0.10
2022-08-22T22:50:01.479Z,0.30
2022-08-22T22:53:04.109Z,0.30
2022-08-22T22:56:09.272Z,0.17
2022-08-22T22:59:13.374Z,0.23
2022-08-22T23:02:19.572Z,0.20
2022-08-22T23:05:21.401Z,0.20
2022-08-22T23:08:23.170Z,0.35
2022-08-22T23:11:29.205Z,0.35
2022-08-22T23:14:31.448Z,0.30
2022-08-22T23:17:34.194Z,0.30
2022-08-22T23:20:36.007Z,0.20
2022-08-22T23:23:37.846Z,0.15
2022-08-22T23:26:40.192Z,0.30
2022-08-22T23:29:42.356Z,0.40
2022-08-22T23:32:44.125Z,0.20
2022-08-22T23:35:46.074Z,0.30
2022-08-22T23:38:49.486Z,0.20
2022-08-22T23:41:51.697Z,0.17
2022-08-22T23:44:53.451Z,0.20
2022-08-22T23:47:55.267Z,0.20
2022-08-22T23:50:57.018Z,0.30
2022-08-22T23:53:59.928Z,0.15
2022-08-22T23:57:12.175Z,0.40
